Time,TemperatureF,DewpointF,PressureIn,WindDirection,WindDirectionDegrees,WindSpeedMPH,WindSpeedGustMPH,Humidity,HourlyPrecipIn,Conditions,Clouds,dailyrainin,SoftwareType,DateUTC
2013-04-03 00:01:00,38.5,29.3,30.18,SSE,154,0.0,-999.0,54,0.00,,,0.00,Custom/Perl,2013-04-03 05:01:00,
2013-04-03 00:07:00,37.9,29.1,30.17,SSE,154,0.0,-999.0,56,0.00,,,0.00,Custom/Perl,2013-04-03 05:07:00,
2013-04-03 00:12:00,37.4,28.6,30.17,SSE,155,0.0,-999.0,56,0.00,,,0.00,Custom/Perl,2013-04-03 05:12:00,
2013-04-03 00:17:00,37.4,28.6,30.17,SSE,162,0.0,-999.0,56,0.00,,,0.00,Custom/Perl,2013-04-03 05:17:00,
2013-04-03 00:22:00,37.2,28.4,30.17,SSE,162,0.0,-999.0,56,0.00,,,0.00,Custom/Perl,2013-04-03 05:22:00,
2013-04-03 00:28:00,36.9,28.1,30.18,SSE,162,0.0,-999.0,56,0.00,,,0.00,Custom/Perl,2013-04-03 05:28:00,
2013-04-03 00:33:00,36.3,28.1,30.18,SSE,162,0.0,-999.0,59,0.00,,,0.00,Custom/Perl,2013-04-03 05:33:00,
2013-04-03 00:38:00,35.6,27.6,30.18,SSE,162,0.0,-999.0,60,0.00,,,0.00,Custom/Perl,2013-04-03 05:38:00,
2013-04-03 00:43:00,35.0,27.2,30.18,SSE,162,0.0,-999.0,61,0.00,,,0.00,Custom/Perl,2013-04-03 05:43:00,
2013-04-03 00:48:00,34.5,26.9,30.18,SSE,162,0.0,-999.0,62,0.00,,,0.00,Custom/Perl,2013-04-03 05:48:00,
2013-04-03 00:54:00,34.1,26.9,30.18,SSE,163,0.0,-999.0,64,0.00,,,0.00,Custom/Perl,2013-04-03 05:54:00,
2013-04-03 00:59:00,33.5,26.3,30.18,SSE,162,0.0,-999.0,64,0.00,,,0.00,Custom/Perl,2013-04-03 05:59:00,
2013-04-03 01:04:00,32.9,26.1,30.18,SSE,162,0.0,-999.0,66,0.00,,,0.00,Custom/Perl,2013-04-03 06:04:00,
2013-04-03 01:09:00,32.7,26.1,30.18,SSE,162,0.0,-999.0,67,0.00,,,0.00,Custom/Perl,2013-04-03 06:09:00,
2013-04-03 01:15:00,32.7,26.1,30.18,SSE,162,0.0,-999.0,67,0.00,,,0.00,Custom/Perl,2013-04-03 06:15:00,
2013-04-03 01:20:00,32.4,26.0,30.18,SSE,162,0.0,-999.0,68,0.00,,,0.00,Custom/Perl,2013-04-03 06:20:00,
2013-04-03 01:25:00,31.9,25.7,30.18,SSE,162,0.0,-999.0,69,0.00,,,0.00,Custom/Perl,2013-04-03 06:25:00,
2013-04-03 01:30:00,31.3,25.3,30.17,SSE,162,0.0,-999.0,70,0.00,,,0.00,Custom/Perl,2013-04-03 06:30:00,
2013-04-03 01:36:00,30.8,25.0,30.17,SSE,162,0.0,-999.0,71,0.00,,,0.00,Custom/Perl,2013-04-03 06:36:00,
2013-04-03 01:41:00,30.7,25.1,30.17,SSE,162,0.0,-999.0,72,0.00,,,0.00,Custom/Perl,2013-04-03 06:41:00,
2013-04-03 01:46:00,31.2,25.2,30.17,SSE,162,0.0,-999.0,70,0.00,,,0.00,Custom/Perl,2013-04-03 06:46:00,
2013-04-03 01:52:00,31.4,25.2,30.17,SSE,162,0.0,-999.0,69,0.00,,,0.00,Custom/Perl,2013-04-03 06:52:00,
2013-04-03 02:51:00,31.6,25.4,30.17,SSE,160,0.0,-999.0,69,0.00,,,0.00,Custom/Perl,2013-04-03 07:51:00,
2013-04-03 02:56:00,31.2,25.2,30.17,SSE,160,0.0,-999.0,70,0.00,,,0.00,Custom/Perl,2013-04-03 07:56:00,
2013-04-03 03:02:00,30.2,24.8,30.18,SSE,160,0.0,-999.0,73,0.00,,,0.00,Custom/Perl,2013-04-03 08:02:00,
2013-04-03 03:07:00,29.7,24.7,30.18,SSE,160,0.0,-999.0,75,0.00,,,0.00,Custom/Perl,2013-04-03 08:07:00,
2013-04-03 03:13:00,29.5,24.5,30.18,SSE,160,0.0,-999.0,75,0.00,,,0.00,Custom/Perl,2013-04-03 08:13:00,
2013-04-03 03:18:00,29.4,24.4,30.18,SSE,160,0.0,-999.0,75,0.00,,,0.00,Custom/Perl,2013-04-03 08:18:00,
2013-04-03 03:23:00,29.6,24.4,30.18,SSE,160,0.0,-999.0,74,0.00,,,0.00,Custom/Perl,2013-04-03 08:23:00,
2013-04-03 03:28:00,29.9,24.5,30.18,SSE,160,0.0,-999.0,73,0.00,,,0.00,Custom/Perl,2013-04-03 08:28:00,
2013-04-03 03:33:00,29.8,24.4,30.18,SSE,160,0.0,-999.0,73,0.00,,,0.00,Custom/Perl,2013-04-03 08:33:00,
2013-04-03 03:39:00,29.9,24.7,30.18,SSE,160,0.0,-999.0,74,0.00,,,0.00,Custom/Perl,2013-04-03 08:39:00,
2013-04-03 03:44:00,29.8,24.6,30.18,SSE,160,0.0,-999.0,74,0.00,,,0.00,Custom/Perl,2013-04-03 08:44:00,
2013-04-03 03:49:00,30.2,25.2,30.18,SSE,160,0.0,-999.0,75,0.00,,,0.00,Custom/Perl,2013-04-03 08:49:00,
2013-04-03 03:54:00,31.0,25.6,30.18,SSE,160,0.0,-999.0,73,0.00,,,0.00,Custom/Perl,2013-04-03 08:54:00,
2013-04-03 04:00:00,30.9,25.5,30.18,SSE,160,0.0,-999.0,73,0.00,,,0.00,Custom/Perl,2013-04-03 09:00:00,
2013-04-03 04:05:00,30.2,25.0,30.18,SSE,160,0.0,-999.0,74,0.00,,,0.00,Custom/Perl,2013-04-03 09:05:00,
2013-04-03 04:10:00,29.7,24.7,30.18,SSE,160,0.0,-999.0,75,0.00,,,0.00,Custom/Perl,2013-04-03 09:10:00,
2013-04-03 04:15:00,29.8,24.8,30.19,SSE,160,0.0,-999.0,75,0.00,,,0.00,Custom/Perl,2013-04-03 09:15:00,
2013-04-03 04:21:00,29.9,24.9,30.19,SSE,160,0.0,-999.0,75,0.00,,,0.00,Custom/Perl,2013-04-03 09:21:00,
2013-04-03 04:26:00,30.1,24.9,30.19,SSE,160,0.0,-999.0,74,0.00,,,0.00,Custom/Perl,2013-04-03 09:26:00,
2013-04-03 04:31:00,30.5,25.1,30.19,SSE,160,0.0,-999.0,73,0.00,,,0.00,Custom/Perl,2013-04-03 09:31:00,
2013-04-03 04:37:00,30.9,25.3,30.19,SSE,160,0.0,-999.0,72,0.00,,,0.00,Custom/Perl,2013-04-03 09:37:00,
2013-04-03 04:42:00,30.9,25.3,30.19,SSE,160,0.0,-999.0,72,0.00,,,0.00,Custom/Perl,2013-04-03 09:42:00,
2013-04-03 04:47:00,30.5,25.1,30.19,SSE,160,0.0,-999.0,73,0.00,,,0.00,Custom/Perl,2013-04-03 09:47:00,
2013-04-03 04:52:00,31.1,25.5,30.19,NNE,29,0.0,-999.0,72,0.00,,,0.00,Custom/Perl,2013-04-03 09:52:00,
2013-04-03 04:58:00,31.8,25.8,30.20,NNE,24,0.0,-999.0,70,0.00,,,0.00,Custom/Perl,2013-04-03 09:58:00,
2013-04-03 05:03:00,32.2,26.2,30.20,NNW,348,1.0,-999.0,70,0.00,,,0.00,Custom/Perl,2013-04-03 10:03:00,
2013-04-03 05:08:00,32.6,26.4,30.20,NNW,333,0.0,-999.0,69,0.00,,,0.00,Custom/Perl,2013-04-03 10:08:00,
2013-04-03 05:13:00,32.7,26.3,30.20,NNW,341,0.0,-999.0,68,0.00,,,0.00,Custom/Perl,2013-04-03 10:13:00,
2013-04-03 05:18:00,32.9,26.5,30.19,NNE,32,0.0,-999.0,68,0.00,,,0.00,Custom/Perl,2013-04-03 10:18:00,
2013-04-03 05:24:00,33.0,26.6,30.20,NNE,22,0.0,-999.0,68,0.00,,,0.00,Custom/Perl,2013-04-03 10:24:00,
2013-04-03 05:29:00,33.0,26.6,30.20,NNE,23,1.0,-999.0,68,0.00,,,0.00,Custom/Perl,2013-04-03 10:29:00,
2013-04-03 05:34:00,33.0,26.6,30.20,NNE,29,0.0,-999.0,68,0.00,,,0.00,Custom/Perl,2013-04-03 10:34:00,
2013-04-03 05:39:00,32.9,26.5,30.20,NE,45,0.0,-999.0,68,0.00,,,0.00,Custom/Perl,2013-04-03 10:39:00,
2013-04-03 07:00:00,32.7,26.7,30.23,NNE,28,0.0,-999.0,70,0.00,,,0.00,Custom/Perl,2013-04-03 12:00:00,
2013-04-03 07:06:00,32.6,26.8,30.23,NW,314,1.0,-999.0,71,0.00,,,0.00,Custom/Perl,2013-04-03 12:06:00,
2013-04-03 07:11:00,32.5,26.7,30.24,West,269,0.0,-999.0,71,0.00,,,0.00,Custom/Perl,2013-04-03 12:11:00,
2013-04-03 07:16:00,32.4,26.6,30.24,SW,235,0.0,-999.0,71,0.00,,,0.00,Custom/Perl,2013-04-03 12:16:00,
2013-04-03 07:21:00,32.4,26.6,30.24,WNW,285,0.0,-999.0,71,0.00,,,0.00,Custom/Perl,2013-04-03 12:21:00,
2013-04-03 07:27:00,32.5,26.7,30.24,North,8,0.0,-999.0,71,0.00,,,0.00,Custom/Perl,2013-04-03 12:27:00,
2013-04-03 07:32:00,32.6,26.8,30.24,West,273,0.0,-999.0,71,0.00,,,0.00,Custom/Perl,2013-04-03 12:32:00,
2013-04-03 07:37:00,32.8,27.0,30.24,West,264,0.0,-999.0,71,0.00,,,0.00,Custom/Perl,2013-04-03 12:37:00,
2013-04-03 07:43:00,32.9,27.1,30.23,NW,315,0.0,-999.0,71,0.00,,,0.00,Custom/Perl,2013-04-03 12:43:00,
2013-04-03 07:48:00,33.1,27.1,30.23,West,279,1.0,-999.0,70,0.00,,,0.00,Custom/Perl,2013-04-03 12:48:00,
2013-04-03 07:53:00,33.3,27.1,30.24,WNW,284,0.0,-999.0,69,0.00,,,0.00,Custom/Perl,2013-04-03 12:53:00,
2013-04-03 07:59:00,33.5,27.3,30.24,NNE,25,3.0,-999.0,69,0.00,,,0.00,Custom/Perl,2013-04-03 12:59:00,
2013-04-03 08:04:00,33.7,27.5,30.24,West,261,1.0,-999.0,69,0.00,,,0.00,Custom/Perl,2013-04-03 13:04:00,
2013-04-03 08:09:00,34.0,27.6,30.24,NW,314,1.0,-999.0,68,0.00,,,0.00,Custom/Perl,2013-04-03 13:09:00,
2013-04-03 08:15:00,34.3,27.7,30.24,West,266,0.0,-999.0,67,0.00,,,0.00,Custom/Perl,2013-04-03 13:15:00,
2013-04-03 08:20:00,34.6,28.0,30.24,NW,310,2.0,-999.0,67,0.00,,,0.00,Custom/Perl,2013-04-03 13:20:00,
2013-04-03 08:25:00,34.9,27.9,30.24,NW,308,0.0,-999.0,65,0.00,,,0.00,Custom/Perl,2013-04-03 13:25:00,
2013-04-03 08:31:00,35.1,28.1,30.24,West,259,1.0,-999.0,65,0.00,,,0.00,Custom/Perl,2013-04-03 13:31:00,
2013-04-03 08:36:00,35.4,28.2,30.24,NW,311,2.0,-999.0,64,0.00,,,0.00,Custom/Perl,2013-04-03 13:36:00,
2013-04-03 08:42:00,35.7,28.5,30.24,West,262,0.0,-999.0,64,0.00,,,0.00,Custom/Perl,2013-04-03 13:42:00,
2013-04-03 08:47:00,36.1,28.7,30.24,North,1,1.0,-999.0,63,0.00,,,0.00,Custom/Perl,2013-04-03 13:47:00,
2013-04-03 08:52:00,36.5,29.1,30.24,WNW,296,1.0,-999.0,63,0.00,,,0.00,Custom/Perl,2013-04-03 13:52:00,
2013-04-03 08:57:00,36.8,29.0,30.24,WSW,252,0.0,-999.0,61,0.00,,,0.00,Custom/Perl,2013-04-03 13:57:00,
2013-04-03 09:03:00,37.3,29.5,30.24,West,274,0.0,-999.0,61,0.00,,,0.00,Custom/Perl,2013-04-03 14:03:00,
2013-04-03 09:08:00,38.2,30.4,30.24,West,261,0.0,-999.0,61,0.00,,,0.00,Custom/Perl,2013-04-03 14:08:00,
2013-04-03 09:13:00,38.9,30.7,30.24,WNW,285,1.0,-999.0,59,0.00,,,0.00,Custom/Perl,2013-04-03 14:13:00,
2013-04-03 09:19:00,39.3,30.9,30.24,NNE,30,0.0,-999.0,58,0.00,,,0.00,Custom/Perl,2013-04-03 14:19:00,
2013-04-03 09:24:00,39.1,30.5,30.24,WNW,300,0.0,-999.0,57,0.00,,,0.00,Custom/Perl,2013-04-03 14:24:00,
2013-04-03 09:29:00,39.2,30.8,30.24,NW,308,0.0,-999.0,58,0.00,,,0.00,Custom/Perl,2013-04-03 14:29:00,
2013-04-03 09:34:00,39.5,30.9,30.24,WNW,284,1.0,-999.0,57,0.00,,,0.00,Custom/Perl,2013-04-03 14:34:00,
2013-04-03 09:40:00,40.1,31.5,30.25,WNW,288,1.0,-999.0,57,0.00,,,0.00,Custom/Perl,2013-04-03 14:40:00,
2013-04-03 09:45:00,41.0,32.6,30.25,West,269,0.0,-999.0,58,0.00,,,0.00,Custom/Perl,2013-04-03 14:45:00,
2013-04-03 09:50:00,41.7,32.5,30.24,WNW,288,0.0,-999.0,54,0.00,,,0.00,Custom/Perl,2013-04-03 14:50:00,
2013-04-03 09:55:00,42.5,33.3,30.24,SW,227,1.0,-999.0,54,0.00,,,0.00,Custom/Perl,2013-04-03 14:55:00,
2013-04-03 10:01:00,43.0,33.6,30.24,NNW,334,0.0,-999.0,53,0.00,,,0.00,Custom/Perl,2013-04-03 15:01:00,
2013-04-03 10:07:00,43.1,32.9,30.24,WNW,293,0.0,-999.0,49,0.00,,,0.00,Custom/Perl,2013-04-03 15:07:00,
2013-04-03 10:12:00,43.4,33.4,30.24,West,278,0.0,-999.0,50,0.00,,,0.00,Custom/Perl,2013-04-03 15:12:00,
2013-04-03 10:17:00,43.9,33.5,30.23,North,10,2.0,-999.0,48,0.00,,,0.00,Custom/Perl,2013-04-03 15:17:00,
2013-04-03 10:23:00,43.9,33.5,30.24,NNW,340,0.0,-999.0,48,0.00,,,0.00,Custom/Perl,2013-04-03 15:23:00,
2013-04-03 10:28:00,44.4,33.8,30.24,NW,305,1.0,-999.0,47,0.00,,,0.00,Custom/Perl,2013-04-03 15:28:00,
2013-04-03 10:33:00,44.8,34.2,30.24,SW,231,0.0,-999.0,47,0.00,,,0.00,Custom/Perl,2013-04-03 15:33:00,
2013-04-03 10:39:00,45.3,34.7,30.24,West,278,1.0,-999.0,47,0.00,,,0.00,Custom/Perl,2013-04-03 15:39:00,
2013-04-03 10:45:00,45.4,34.0,30.24,South,191,1.0,-999.0,43,0.00,,,0.00,Custom/Perl,2013-04-03 15:45:00,
2013-04-03 10:50:00,46.0,34.8,30.24,NW,318,1.0,-999.0,44,0.00,,,0.00,Custom/Perl,2013-04-03 15:50:00,
2013-04-03 10:55:00,46.6,35.4,30.24,WNW,283,2.0,-999.0,44,0.00,,,0.00,Custom/Perl,2013-04-03 15:55:00,
2013-04-03 11:00:00,47.1,35.7,30.24,West,259,1.0,-999.0,43,0.00,,,0.00,Custom/Perl,2013-04-03 16:00:00,
2013-04-03 11:05:00,47.5,36.3,30.24,West,279,2.0,-999.0,44,0.00,,,0.00,Custom/Perl,2013-04-03 16:05:00,
2013-04-03 11:10:00,48.1,36.3,30.24,SW,236,1.0,-999.0,41,0.00,,,0.00,Custom/Perl,2013-04-03 16:10:00,
2013-04-03 11:16:00,48.3,36.7,30.24,West,262,0.0,-999.0,42,0.00,,,0.00,Custom/Perl,2013-04-03 16:16:00,
2013-04-03 11:21:00,48.8,37.0,30.24,WNW,287,2.0,-999.0,41,0.00,,,0.00,Custom/Perl,2013-04-03 16:21:00,
2013-04-03 11:27:00,48.9,37.3,30.24,WNW,287,0.0,-999.0,42,0.00,,,0.00,Custom/Perl,2013-04-03 16:27:00,
2013-04-03 11:31:00,49.0,37.0,30.24,North,357,1.0,-999.0,40,0.00,,,0.00,Custom/Perl,2013-04-03 16:31:00,
2013-04-03 11:37:00,48.8,37.0,30.24,WNW,283,0.0,-999.0,41,0.00,,,0.00,Custom/Perl,2013-04-03 16:37:00,
2013-04-03 11:42:00,49.0,37.0,30.24,NW,309,0.0,-999.0,40,0.00,,,0.00,Custom/Perl,2013-04-03 16:42:00,
2013-04-03 11:47:00,49.2,37.4,30.24,WSW,257,0.0,-999.0,41,0.00,,,0.00,Custom/Perl,2013-04-03 16:47:00,
2013-04-03 11:53:00,49.6,37.8,30.24,WSW,240,2.0,-999.0,41,0.00,,,0.00,Custom/Perl,2013-04-03 16:53:00,
2013-04-03 11:58:00,49.5,37.5,30.24,West,266,0.0,-999.0,40,0.00,,,0.00,Custom/Perl,2013-04-03 16:58:00,
2013-04-03 12:03:00,49.7,37.7,30.24,SSW,205,0.0,-999.0,40,0.00,,,0.00,Custom/Perl,2013-04-03 17:03:00,
2013-04-03 12:08:00,50.0,37.8,30.23,SE,144,3.0,-999.0,39,0.00,,,0.00,Custom/Perl,2013-04-03 17:08:00,
2013-04-03 12:14:00,49.8,37.4,30.23,NW,321,2.0,-999.0,38,0.00,,,0.00,Custom/Perl,2013-04-03 17:14:00,
2013-04-03 12:19:00,49.5,37.1,30.22,NW,309,1.0,-999.0,38,0.00,,,0.00,Custom/Perl,2013-04-03 17:19:00,
2013-04-03 12:25:00,50.0,37.8,30.22,SSE,160,0.0,-999.0,39,0.00,,,0.00,Custom/Perl,2013-04-03 17:25:00,
2013-04-03 12:32:00,50.2,38.0,30.22,WNW,298,1.0,-999.0,39,0.00,,,0.00,Custom/Perl,2013-04-03 17:32:00,
2013-04-03 12:37:00,50.3,38.3,30.22,NW,325,1.0,-999.0,40,0.00,,,0.00,Custom/Perl,2013-04-03 17:37:00,
2013-04-03 12:42:00,50.6,38.6,30.22,WNW,300,0.0,-999.0,40,0.00,,,0.00,Custom/Perl,2013-04-03 17:42:00,
2013-04-03 12:48:00,50.9,38.1,30.22,NNW,339,1.0,-999.0,36,0.00,,,0.00,Custom/Perl,2013-04-03 17:48:00,
2013-04-03 12:53:00,51.1,38.5,30.22,SSE,166,2.0,-999.0,37,0.00,,,0.00,Custom/Perl,2013-04-03 17:53:00,
2013-04-03 12:59:00,51.0,38.8,30.22,WSW,253,2.0,-999.0,39,0.00,,,0.00,Custom/Perl,2013-04-03 17:59:00,
2013-04-03 14:07:00,51.0,38.0,30.20,North,359,2.0,-999.0,35,0.00,,,0.00,Custom/Perl,2013-04-03 19:07:00,
2013-04-03 14:12:00,50.5,37.5,30.20,NNE,15,0.0,-999.0,35,0.00,,,0.00,Custom/Perl,2013-04-03 19:12:00,
2013-04-03 14:18:00,50.5,37.5,30.19,North,11,0.0,-999.0,35,0.00,,,0.00,Custom/Perl,2013-04-03 19:18:00,
2013-04-03 14:23:00,50.7,38.3,30.19,West,264,1.0,-999.0,38,0.00,,,0.00,Custom/Perl,2013-04-03 19:23:00,
2013-04-03 14:29:00,50.9,38.5,30.19,West,261,0.0,-999.0,38,0.00,,,0.00,Custom/Perl,2013-04-03 19:29:00,
2013-04-03 14:34:00,50.6,38.0,30.19,SW,221,0.0,-999.0,37,0.00,,,0.00,Custom/Perl,2013-04-03 19:34:00,
2013-04-03 14:40:00,50.6,38.0,30.18,WSW,237,0.0,-999.0,37,0.00,,,0.00,Custom/Perl,2013-04-03 19:40:00,
2013-04-03 14:45:00,50.8,38.2,30.18,WNW,287,0.0,-999.0,37,0.00,,,0.00,Custom/Perl,2013-04-03 19:45:00,
2013-04-03 14:50:00,50.7,38.1,30.18,SSW,205,0.0,-999.0,37,0.00,,,0.00,Custom/Perl,2013-04-03 19:50:00,
2013-04-03 14:55:00,50.8,38.4,30.18,SSW,207,0.0,-999.0,38,0.00,,,0.00,Custom/Perl,2013-04-03 19:55:00,
2013-04-03 15:00:00,50.8,38.4,30.18,WNW,298,0.0,-999.0,38,0.00,,,0.00,Custom/Perl,2013-04-03 20:00:00,
2013-04-03 15:06:00,51.0,38.4,30.17,NNW,340,0.0,-999.0,37,0.00,,,0.00,Custom/Perl,2013-04-03 20:06:00,
2013-04-03 15:11:00,51.3,38.5,30.17,WNW,295,0.0,-999.0,36,0.00,,,0.00,Custom/Perl,2013-04-03 20:11:00,
2013-04-03 15:16:00,51.0,38.0,30.17,North,352,3.0,-999.0,35,0.00,,,0.00,Custom/Perl,2013-04-03 20:16:00,
2013-04-03 15:21:00,50.9,37.9,30.17,NNE,15,0.0,-999.0,35,0.00,,,0.00,Custom/Perl,2013-04-03 20:21:00,
2013-04-03 15:26:00,50.9,38.1,30.17,NW,311,1.0,-999.0,36,0.00,,,0.00,Custom/Perl,2013-04-03 20:26:00,
2013-04-03 15:32:00,51.0,38.0,30.17,SE,133,1.0,-999.0,35,0.00,,,0.00,Custom/Perl,2013-04-03 20:32:00,
2013-04-03 16:00:00,50.8,38.2,30.16,West,277,0.0,-999.0,37,0.00,,,0.00,Custom/Perl,2013-04-03 21:00:00,
2013-04-03 16:06:00,50.7,38.3,30.15,NW,307,1.0,-999.0,38,0.00,,,0.00,Custom/Perl,2013-04-03 21:06:00,
2013-04-03 16:11:00,50.5,37.9,30.16,SSW,198,1.0,-999.0,37,0.00,,,0.00,Custom/Perl,2013-04-03 21:11:00,
2013-04-03 16:16:00,50.4,37.6,30.15,West,263,0.0,-999.0,36,0.00,,,0.00,Custom/Perl,2013-04-03 21:16:00,
2013-04-03 16:21:00,50.4,37.8,30.15,West,280,0.0,-999.0,37,0.00,,,0.00,Custom/Perl,2013-04-03 21:21:00,
2013-04-03 16:27:00,50.3,37.5,30.15,WSW,249,0.0,-999.0,36,0.00,,,0.00,Custom/Perl,2013-04-03 21:27:00,
2013-04-03 16:32:00,50.3,37.7,30.15,WNW,287,1.0,-999.0,37,0.00,,,0.00,Custom/Perl,2013-04-03 21:32:00,
2013-04-03 16:37:00,50.2,37.6,30.15,North,9,5.0,-999.0,37,0.00,,,0.00,Custom/Perl,2013-04-03 21:37:00,
2013-04-03 16:42:00,50.1,37.5,30.15,NNE,19,2.0,-999.0,37,0.00,,,0.00,Custom/Perl,2013-04-03 21:42:00,
2013-04-03 16:47:00,50.2,37.8,30.14,NE,44,2.0,-999.0,38,0.00,,,0.00,Custom/Perl,2013-04-03 21:47:00,
2013-04-03 16:52:00,50.3,37.7,30.14,ENE,75,2.0,-999.0,37,0.00,,,0.00,Custom/Perl,2013-04-03 21:52:00,
2013-04-03 16:58:00,50.4,37.8,30.14,NE,53,2.0,-999.0,37,0.00,,,0.00,Custom/Perl,2013-04-03 21:58:00,
2013-04-03 17:03:00,50.4,37.8,30.14,North,7,0.0,-999.0,37,0.00,,,0.00,Custom/Perl,2013-04-03 22:03:00,
2013-04-03 17:08:00,50.4,37.8,30.14,NW,316,0.0,-999.0,37,0.00,,,0.00,Custom/Perl,2013-04-03 22:08:00,
2013-04-03 17:14:00,50.4,37.8,30.14,ENE,73,2.0,-999.0,37,0.00,,,0.00,Custom/Perl,2013-04-03 22:14:00,
2013-04-03 17:19:00,50.2,37.8,30.14,NE,36,0.0,-999.0,38,0.00,,,0.00,Custom/Perl,2013-04-03 22:19:00,
2013-04-03 17:24:00,50.1,37.7,30.14,North,11,3.0,-999.0,38,0.00,,,0.00,Custom/Perl,2013-04-03 22:24:00,
2013-04-03 17:30:00,50.0,37.4,30.13,SW,220,1.0,-999.0,37,0.00,,,0.00,Custom/Perl,2013-04-03 22:30:00,
2013-04-03 17:35:00,49.9,37.5,30.13,WNW,300,0.0,-999.0,38,0.00,,,0.00,Custom/Perl,2013-04-03 22:35:00,
2013-04-03 17:40:00,49.9,37.5,30.13,SE,135,1.0,-999.0,38,0.00,,,0.00,Custom/Perl,2013-04-03 22:40:00,
2013-04-03 17:45:00,49.7,37.3,30.13,NNE,20,1.0,-999.0,38,0.00,,,0.00,Custom/Perl,2013-04-03 22:45:00,
2013-04-03 17:51:00,49.7,37.5,30.12,West,278,0.0,-999.0,39,0.00,,,0.00,Custom/Perl,2013-04-03 22:51:00,
2013-04-03 17:56:00,49.6,37.2,30.12,WNW,290,0.0,-999.0,38,0.00,,,0.00,Custom/Perl,2013-04-03 22:56:00,
2013-04-03 18:01:00,49.5,37.3,30.12,SW,234,0.0,-999.0,39,0.00,,,0.00,Custom/Perl,2013-04-03 23:01:00,
2013-04-03 18:07:00,49.5,37.5,30.12,West,279,0.0,-999.0,40,0.00,,,0.00,Custom/Perl,2013-04-03 23:07:00,
2013-04-03 18:12:00,49.4,37.4,30.12,West,262,0.0,-999.0,40,0.00,,,0.00,Custom/Perl,2013-04-03 23:12:00,
2013-04-03 18:17:00,49.3,37.3,30.12,West,269,0.0,-999.0,40,0.00,,,0.00,Custom/Perl,2013-04-03 23:17:00,
2013-04-03 18:55:00,48.5,36.9,30.12,WNW,291,0.0,-999.0,42,0.00,,,0.00,Custom/Perl,2013-04-03 23:55:00,
2013-04-03 19:00:00,48.4,36.8,30.12,WNW,284,0.0,-999.0,42,0.00,,,0.00,Custom/Perl,2013-04-04 00:00:00,
2013-04-03 19:05:00,48.3,36.5,30.12,NW,325,0.0,-999.0,41,0.00,,,0.00,Custom/Perl,2013-04-04 00:05:00,
2013-04-03 19:11:00,48.2,36.4,30.12,WNW,294,0.0,-999.0,41,0.00,,,0.00,Custom/Perl,2013-04-04 00:11:00,
2013-04-03 19:16:00,48.1,36.5,30.13,WNW,294,0.0,-999.0,42,0.00,,,0.00,Custom/Perl,2013-04-04 00:16:00,
2013-04-03 19:22:00,47.9,36.5,30.13,WNW,288,0.0,-999.0,43,0.00,,,0.00,Custom/Perl,2013-04-04 00:22:00,
2013-04-03 19:27:00,47.7,36.3,30.13,WNW,288,0.0,-999.0,43,0.00,,,0.00,Custom/Perl,2013-04-04 00:27:00,
2013-04-03 19:32:00,47.6,36.2,30.13,NNW,347,0.0,-999.0,43,0.00,,,0.00,Custom/Perl,2013-04-04 00:32:00,
2013-04-03 19:37:00,47.6,36.0,30.12,NE,49,0.0,-999.0,42,0.00,,,0.00,Custom/Perl,2013-04-04 00:37:00,
2013-04-03 19:42:00,47.5,36.1,30.13,WNW,288,0.0,-999.0,43,0.00,,,0.00,Custom/Perl,2013-04-04 00:42:00,
2013-04-03 19:48:00,47.3,35.9,30.13,WNW,288,0.0,-999.0,43,0.00,,,0.00,Custom/Perl,2013-04-04 00:48:00,
2013-04-03 19:53:00,47.1,35.7,30.13,WNW,288,0.0,-999.0,43,0.00,,,0.00,Custom/Perl,2013-04-04 00:53:00,
2013-04-03 19:58:00,46.9,36.1,30.12,WNW,289,0.0,-999.0,46,0.00,,,0.00,Custom/Perl,2013-04-04 00:58:00,
2013-04-03 20:04:00,46.8,36.2,30.12,WNW,289,0.0,-999.0,47,0.00,,,0.00,Custom/Perl,2013-04-04 01:04:00,
2013-04-03 20:09:00,46.7,35.9,30.12,WNW,289,0.0,-999.0,46,0.00,,,0.00,Custom/Perl,2013-04-04 01:09:00,
2013-04-03 20:14:00,46.6,35.8,30.12,WNW,289,0.0,-999.0,46,0.00,,,0.00,Custom/Perl,2013-04-04 01:14:00,
2013-04-03 20:19:00,46.5,35.7,30.12,NW,321,0.0,-999.0,46,0.00,,,0.00,Custom/Perl,2013-04-04 01:19:00,
2013-04-03 20:24:00,46.6,35.6,30.12,NW,321,0.0,-999.0,45,0.00,,,0.00,Custom/Perl,2013-04-04 01:24:00,
2013-04-03 20:30:00,46.5,35.9,30.12,NW,321,0.0,-999.0,47,0.00,,,0.00,Custom/Perl,2013-04-04 01:30:00,
2013-04-03 20:35:00,46.1,35.5,30.12,NW,321,0.0,-999.0,47,0.00,,,0.00,Custom/Perl,2013-04-04 01:35:00,
2013-04-03 20:40:00,45.9,35.7,30.12,NW,321,0.0,-999.0,49,0.00,,,0.00,Custom/Perl,2013-04-04 01:40:00,
2013-04-03 20:45:00,45.7,35.7,30.12,NW,321,0.0,-999.0,50,0.00,,,0.00,Custom/Perl,2013-04-04 01:45:00,
2013-04-03 20:51:00,45.3,35.3,30.12,NW,321,0.0,-999.0,50,0.00,,,0.00,Custom/Perl,2013-04-04 01:51:00,
2013-04-03 20:56:00,45.1,35.5,30.12,NW,321,0.0,-999.0,52,0.00,,,0.00,Custom/Perl,2013-04-04 01:56:00,